Time;durP1;ratioP1;P1;durP2;ratioP2;P2;SDS_P1;SDS_P2;PMS_P1;PMS_P2;Temp;Humidity;BMP_temperature;BMP_pressure;BME280_temperature;BME280_humidity;BME280_pressure;Samples;Min_cycle;Max_cycle;Signal;HPM_P1;HPM_P2
2023/06/03 00:03:46;;;;;;;0.00;0.00;;;;;;;10.50;45.36;101903.00;15678484;28;20094;-51
2023/06/03 00:11:20;;;;;;;0.00;0.00;;;;;;;10.41;45.40;101897.69;15678426;28;20053;-52
2023/06/03 00:18:53;;;;;;;0.00;0.00;;;;;;;10.66;44.80;101897.47;15683128;28;20371;-50
2023/06/03 00:26:27;;;;;;;0.20;0.00;;;;;;;10.39;45.23;101885.44;15674066;28;20061;-51
2023/06/03 00:34:03;;;;;;;0.10;0.10;;;;;;;10.56;45.41;101892.34;15686129;28;20049;-50
2023/06/03 00:41:38;;;;;;;0.10;0.10;;;;;;;10.74;45.64;101897.38;15677926;28;20048;-51
2023/06/03 00:49:11;;;;;;;0.00;0.00;;;;;;;10.51;45.55;101897.44;15671828;28;20493;-53
2023/06/03 00:56:47;;;;;;;0.25;0.25;;;;;;;10.16;46.63;101904.22;15675615;28;20182;-56
2023/06/03 01:04:25;;;;;;;0.28;0.25;;;;;;;9.87;46.81;101895.03;15677710;28;20049;-53
2023/06/03 01:12:07;;;;;;;0.10;0.10;;;;;;;10.48;46.35;101900.47;15679135;28;20052;-53
2023/06/03 01:19:48;;;;;;;0.00;0.00;;;;;;;10.09;46.91;101871.91;15668331;28;20080;-53
2023/06/03 01:27:22;;;;;;;0.10;0.10;;;;;;;9.75;47.51;101911.72;15691141;28;20037;-53
2023/06/03 01:34:56;;;;;;;1.10;0.60;;;;;;;10.06;47.63;101900.94;15697424;28;20053;-52
2023/06/03 01:42:30;;;;;;;;;;;;;;;9.81;48.20;101911.81;15690271;28;20060;-52
2023/06/03 01:50:06;;;;;;;0.30;0.03;;;;;;;9.57;48.84;101912.78;15692414;28;19967;-56
2023/06/03 01:57:41;;;;;;;0.00;0.00;;;;;;;9.28;49.55;101909.88;15685094;28;20036;-55
2023/06/03 02:05:14;;;;;;;0.20;0.10;;;;;;;9.14;49.68;101912.28;15687253;28;20041;-52
2023/06/03 02:12:49;;;;;;;1.00;0.35;;;;;;;10.15;47.75;101914.09;15683049;28;20420;-53
2023/06/03 02:20:23;;;;;;;0.20;0.20;;;;;;;9.89;47.71;101873.41;15682168;28;20091;-55
2023/06/03 02:27:58;;;;;;;0.00;0.00;;;;;;;10.05;48.46;101918.88;15670129;28;20541;-52
2023/06/03 02:35:31;;;;;;;0.32;0.22;;;;;;;9.86;48.69;101922.03;15677185;28;20106;-53
2023/06/03 02:43:05;;;;;;;0.13;0.13;;;;;;;9.49;49.58;101918.19;15685164;28;20049;-53
2023/06/03 02:50:38;;;;;;;0.08;0.00;;;;;;;9.25;49.90;101918.28;15688971;28;20127;-53
2023/06/03 02:58:15;;;;;;;0.10;0.00;;;;;;;9.51;49.07;101918.84;15680041;28;20048;-55
2023/06/03 03:05:49;;;;;;;0.17;0.05;;;;;;;8.94;50.26;101919.84;15694516;28;20053;-50
2023/06/03 03:13:23;;;;;;;0.00;0.00;;;;;;;8.85;49.96;101915.50;15683416;28;20545;-53
2023/06/03 03:20:56;;;;;;;0.15;0.15;;;;;;;9.14;49.43;101924.84;15696048;28;20080;-53
2023/06/03 03:28:35;;;;;;;0.10;0.10;;;;;;;9.04;48.78;101932.22;15681100;28;20036;-52
2023/06/03 03:36:13;;;;;;;0.10;0.03;;;;;;;9.20;48.99;101932.19;15682974;28;20065;-53
2023/06/03 03:43:51;;;;;;;0.08;0.05;;;;;;;9.14;48.50;101940.94;15678744;28;20041;-52
2023/06/03 03:51:25;;;;;;;0.00;0.00;;;;;;;8.82;48.91;101937.28;15679232;28;20137;-54
2023/06/03 03:59:00;;;;;;;0.10;0.07;;;;;;;9.10;48.53;101940.41;15658541;28;20483;-52
2023/06/03 04:06:39;;;;;;;0.32;0.20;;;;;;;9.10;48.81;101936.91;15690054;28;20049;-52
2023/06/03 04:14:15;;;;;;;0.30;0.30;;;;;;;9.29;49.02;101949.09;15665413;28;20055;-52
2023/06/03 04:21:48;;;;;;;0.10;0.10;;;;;;;9.11;49.14;101957.31;15669789;28;20108;-52
2023/06/03 04:29:23;;;;;;;0.17;0.00;;;;;;;9.51;48.69;101959.03;15679895;28;20627;-53
2023/06/03 04:36:57;;;;;;;0.40;0.40;;;;;;;9.42;48.77;101962.78;15679986;28;20073;-54
2023/06/03 04:44:33;;;;;;;0.40;0.20;;;;;;;10.13;48.17;101953.72;15675170;28;20048;-53
2023/06/03 04:52:09;;;;;;;0.10;0.10;;;;;;;10.27;47.66;101954.00;15675707;28;20060;-53
2023/06/03 04:59:45;;;;;;;0.45;0.45;;;;;;;10.17;48.15;101956.88;15672430;28;20147;-53
2023/06/03 05:07:21;;;;;;;0.15;0.10;;;;;;;10.06;47.37;101927.75;15670845;28;20608;-52
2023/06/03 05:14:56;;;;;;;0.00;0.00;;;;;;;10.55;47.21;101960.50;15678626;28;20070;-52
2023/06/03 05:22:29;;;;;;;0.00;0.00;;;;;;;11.11;45.86;101955.59;15682746;28;20518;-51
2023/06/03 05:30:03;;;;;;;5.23;0.27;;;;;;;11.22;46.08;101962.38;15677422;28;20045;-50
2023/06/03 05:37:38;;;;;;;1.33;0.68;;;;;;;11.61;45.49;101951.34;15662227;28;20053;-55
2023/06/03 05:45:14;;;;;;;0.28;0.28;;;;;;;12.01;44.32;101951.84;15656974;28;20114;-54
2023/06/03 05:52:47;;;;;;;0.50;0.25;;;;;;;12.53;43.37;101953.41;15673480;28;20056;-51
2023/06/03 06:00:21;;;;;;;0.10;0.00;;;;;;;13.49;40.89;101959.94;15677045;28;20041;-52
2023/06/03 06:07:58;;;;;;;0.30;0.20;;;;;;;14.07;39.48;101958.69;15696463;28;20051;-53
2023/06/03 06:15:32;;;;;;;0.10;0.10;;;;;;;13.87;40.18;101955.94;15689233;28;20056;-53
2023/06/03 06:23:06;;;;;;;0.35;0.22;;;;;;;14.06;39.21;101952.47;15692635;28;20501;-54
2023/06/03 06:30:41;;;;;;;0.40;0.40;;;;;;;14.39;38.35;101959.81;15669441;28;20167;-55
2023/06/03 06:38:14;;;;;;;0.05;0.05;;;;;;;14.78;37.62;101930.16;15672049;28;20049;-52
2023/06/03 06:45:49;;;;;;;3.15;0.20;;;;;;;15.61;37.03;101958.47;15683446;28;20051;-53
2023/06/03 06:53:24;;;;;;;0.30;0.17;;;;;;;16.17;36.26;101958.63;15684466;28;20601;-53
2023/06/03 07:01:05;;;;;;;0.50;0.30;;;;;;;17.09;33.21;101959.00;15678687;28;20040;-52
2023/06/03 07:08:39;;;;;;;2.42;0.35;;;;;;;17.76;32.73;101961.81;15689861;28;20037;-54
2023/06/03 07:16:15;;;;;;;1.48;0.30;;;;;;;18.30;30.82;101954.63;15685539;28;20045;-53
2023/06/03 07:23:50;;;;;;;0.45;0.30;;;;;;;17.87;30.77;101949.38;15687901;28;20037;-53
2023/06/03 07:31:25;;;;;;;3.25;0.55;;;;;;;19.30;29.98;101951.03;15697386;28;20044;-53
2023/06/03 07:39:06;;;;;;;1.52;0.30;;;;;;;19.27;29.22;101965.16;15682604;28;20036;-52
2023/06/03 07:46:45;;;;;;;1.63;0.40;;;;;;;19.88;29.60;101958.28;15661428;28;20498;-52
2023/06/03 07:54:28;;;;;;;1.73;0.15;;;;;;;20.46;28.18;101959.06;15671683;28;20041;-54
2023/06/03 08:02:04;;;;;;;1.67;0.30;;;;;;;19.82;28.41;101951.09;15678884;28;20068;-54
2023/06/03 08:09:37;;;;;;;3.95;0.65;;;;;;;19.66;29.04;101954.56;15687848;28;20136;-53
2023/06/03 08:17:13;;;;;;;1.70;0.43;;;;;;;19.97;28.96;101951.38;15683937;28;20052;-52
2023/06/03 08:24:46;;;;;;;0.15;0.10;;;;;;;19.75;29.71;101945.78;15684360;28;20036;-55
2023/06/03 08:32:22;;;;;;;0.20;0.20;;;;;;;19.74;30.40;101946.03;15678586;28;20053;-51
2023/06/03 08:39:55;;;;;;;2.20;0.65;;;;;;;20.72;27.43;101949.44;15663969;28;20185;-54
2023/06/03 08:47:40;;;;;;;10.32;0.28;;;;;;;19.79;28.70;101938.78;15676891;28;20053;-53
2023/06/03 08:55:17;;;;;;;0.20;0.20;;;;;;;20.71;27.81;101951.34;15674889;28;20119;-51
2023/06/03 09:02:51;;;;;;;1.75;0.20;;;;;;;20.28;27.43;101949.19;15674033;28;20462;-53
2023/06/03 09:10:26;;;;;;;0.10;0.10;;;;;;;20.43;27.08;101940.50;15684006;28;20037;-53
2023/06/03 09:18:00;;;;;;;0.35;0.20;;;;;;;21.21;29.00;101939.50;15681647;28;20056;-53
2023/06/03 09:25:32;;;;;;;0.38;0.13;;;;;;;21.59;25.47;101937.84;15680486;28;20057;-55
2023/06/03 09:33:06;;;;;;;0.00;0.00;;;;;;;21.75;24.35;101933.41;15684062;28;20049;-50
2023/06/03 09:40:39;;;;;;;0.65;0.43;;;;;;;22.42;24.91;101913.84;15688323;28;20080;-51
2023/06/03 09:48:13;;;;;;;1.33;0.32;;;;;;;21.99;24.22;101914.81;15688978;28;20045;-52
2023/06/03 09:55:47;;;;;;;0.65;0.47;;;;;;;22.80;22.88;101915.53;15687153;28;20045;-52
2023/06/03 10:03:25;;;;;;;1.13;0.55;;;;;;;22.94;23.13;101918.63;15684007;28;20077;-51
2023/06/03 10:10:59;;;;;;;0.60;0.20;;;;;;;22.97;23.38;101907.16;15689948;28;20543;-55
2023/06/03 10:18:38;;;;;;;0.10;0.00;;;;;;;22.52;22.79;101911.22;15696565;28;20052;-53
2023/06/03 10:26:11;;;;;;;0.55;0.25;;;;;;;22.71;23.76;101908.03;15687424;28;20037;-52
2023/06/03 10:33:46;;;;;;;0.68;0.22;;;;;;;24.34;24.89;101903.19;15692221;28;20467;-56
2023/06/03 10:41:20;;;;;;;1.17;0.55;;;;;;;24.62;21.36;101897.19;15685245;28;20049;-53
2023/06/03 10:48:55;;;;;;;5.50;0.40;;;;;;;23.62;22.06;101894.84;15685505;28;20048;-52
2023/06/03 10:56:33;;;;;;;0.20;0.10;;;;;;;24.99;21.15;101873.22;15664520;28;20055;-53
2023/06/03 11:04:17;;;;;;;3.08;0.40;;;;;;;24.54;20.91;101873.06;15687144;28;20049;-53
2023/06/03 11:12:03;;;;;;;0.40;0.25;;;;;;;24.78;20.85;101872.47;15687218;28;20043;-53
2023/06/03 11:19:49;;;;;;;0.45;0.13;;;;;;;25.07;21.67;101878.97;15679076;28;20579;-53
2023/06/03 11:27:24;;;;;;;1.60;0.52;;;;;;;24.79;20.87;101868.59;15684148;28;20044;-52
2023/06/03 11:35:29;;;;;;;0.57;0.20;;;;;;;23.24;21.75;101862.38;15685921;28;20506;-55
2023/06/03 11:43:06;;;;;;;8.63;0.30;;;;;;;23.71;21.60;101864.19;15685351;28;20463;-54
2023/06/03 11:50:49;;;;;;;1.85;0.90;;;;;;;24.27;20.96;101859.59;15679907;28;20071;-55
2023/06/03 11:58:22;;;;;;;0.85;0.20;;;;;;;24.40;21.38;101856.31;15676304;28;20076;-52
2023/06/03 12:05:57;;;;;;;0.30;0.20;;;;;;;23.92;21.12;101842.03;15676613;28;20114;-51
2023/06/03 12:13:38;;;;;;;0.10;0.10;;;;;;;23.98;20.76;101858.50;15687429;28;20517;-51
2023/06/03 12:21:22;;;;;;;0.32;0.17;;;;;;;24.77;20.78;101837.88;15683505;28;20137;-52
2023/06/03 12:29:05;;;;;;;0.32;0.10;;;;;;;24.19;21.04;101824.47;15684601;28;20041;-53
2023/06/03 12:36:50;;;;;;;0.35;0.15;;;;;;;25.70;20.58;101837.19;15679907;28;20064;-53
2023/06/03 12:44:22;;;;;;;0.52;0.13;;;;;;;25.76;19.36;101791.22;15681534;28;20588;-53
2023/06/03 12:52:11;;;;;;;1.45;0.43;;;;;;;26.76;21.06;101806.25;15675258;28;20049;-55
2023/06/03 13:00:07;;;;;;;0.00;0.00;;;;;;;26.54;18.96;101809.53;15676664;28;20542;-51
2023/06/03 13:07:43;;;;;;;0.30;0.25;;;;;;;25.62;20.12;101810.28;15678696;28;20041;-53
2023/06/03 13:15:17;;;;;;;0.55;0.28;;;;;;;24.10;20.94;101795.94;15683798;28;20128;-53
2023/06/03 13:22:52;;;;;;;0.85;0.30;;;;;;;23.52;21.82;101785.19;15691516;28;20120;-53
2023/06/03 13:30:24;;;;;;;0.52;0.13;;;;;;;24.78;21.43;101790.88;15697130;28;20041;-54
2023/06/03 13:37:58;;;;;;;0.13;0.10;;;;;;;24.32;21.12;101774.50;15692558;28;20087;-54
2023/06/03 13:45:31;;;;;;;0.10;0.00;;;;;;;23.78;21.53;101772.38;15695637;28;20048;-52
2023/06/03 13:53:05;;;;;;;0.17;0.17;;;;;;;22.85;22.07;101769.63;15690485;28;20048;-52
2023/06/03 14:00:38;;;;;;;0.10;0.10;;;;;;;22.38;22.27;101763.09;15694784;28;20064;-52
2023/06/03 14:08:12;;;;;;;0.20;0.10;;;;;;;22.75;22.96;101764.91;15685617;28;20045;-52
2023/06/03 14:15:44;;;;;;;0.45;0.17;;;;;;;22.33;23.18;101752.09;15679948;28;20049;-51
2023/06/03 14:23:21;;;;;;;;;;;;;;;22.33;23.33;101743.91;15689464;28;20147;-54
2023/06/03 14:30:54;;;;;;;1.40;0.20;;;;;;;21.68;22.97;101746.94;15691071;28;19920;-52
2023/06/03 14:38:31;;;;;;;;;;;;;;;21.05;24.11;101733.75;15678828;28;20051;-54
2023/06/03 14:46:04;;;;;;;0.17;0.03;;;;;;;22.06;23.49;101729.50;15688117;28;20333;-52
2023/06/03 14:53:38;;;;;;;0.70;0.20;;;;;;;22.48;23.37;101734.97;15681316;28;20468;-54
2023/06/03 15:01:11;;;;;;;0.60;0.43;;;;;;;20.71;24.56;101726.78;15682078;28;20045;-51
2023/06/03 15:08:45;;;;;;;0.82;0.30;;;;;;;21.99;24.58;101715.22;15679903;28;20076;-52
2023/06/03 15:16:19;;;;;;;3.47;0.55;;;;;;;21.70;24.26;101715.56;15688449;28;20071;-50
2023/06/03 15:23:53;;;;;;;;;;;;;;;21.61;24.38;101711.66;15690444;28;20052;-51
2023/06/03 15:31:26;;;;;;;0.00;0.00;;;;;;;21.52;24.53;101702.28;15684390;28;19921;-52
2023/06/03 15:39:04;;;;;;;0.40;0.17;;;;;;;21.09;24.73;101690.38;15685753;28;20116;-51
2023/06/03 15:46:37;;;;;;;0.45;0.30;;;;;;;21.51;24.08;101689.72;15682083;28;20151;-53
2023/06/03 15:54:12;;;;;;;0.50;0.30;;;;;;;21.52;23.79;101678.50;15663625;28;20127;-52
2023/06/03 16:01:45;;;;;;;1.42;0.38;;;;;;;20.24;24.75;101676.25;15678593;28;20043;-51
2023/06/03 16:09:19;;;;;;;0.40;0.20;;;;;;;20.53;24.39;101667.91;15675866;28;20053;-51
2023/06/03 16:16:52;;;;;;;0.20;0.10;;;;;;;21.18;25.02;101634.22;15684295;28;20127;-51
2023/06/03 16:24:26;;;;;;;0.55;0.30;;;;;;;20.69;25.05;101653.38;15688645;28;20049;-51
2023/06/03 16:31:59;;;;;;;1.67;0.10;;;;;;;20.69;24.78;101667.00;15678752;28;20624;-50
2023/06/03 16:39:33;;;;;;;0.05;0.05;;;;;;;20.63;25.46;101657.94;15681994;28;20051;-53
2023/06/03 16:47:06;;;;;;;0.38;0.10;;;;;;;21.11;24.62;101658.19;15675959;28;20045;-52
2023/06/03 16:54:42;;;;;;;0.43;0.30;;;;;;;20.58;24.78;101648.88;15679968;28;20061;-53
2023/06/03 17:02:16;;;;;;;0.13;0.13;;;;;;;20.44;25.05;101645.69;15673650;28;20065;-54
2023/06/03 17:09:50;;;;;;;0.40;0.20;;;;;;;20.23;25.86;101649.22;15656124;28;20656;-53
2023/06/03 17:17:23;;;;;;;0.30;0.17;;;;;;;19.96;25.69;101649.13;15681436;28;20077;-55
2023/06/03 17:24:57;;;;;;;0.10;0.10;;;;;;;19.86;25.64;101644.34;15686610;28;20056;-52
2023/06/03 17:32:30;;;;;;;0.00;0.00;;;;;;;20.26;26.22;101641.38;15679281;28;20563;-56
2023/06/03 17:40:04;;;;;;;0.52;0.15;;;;;;;19.71;26.68;101642.22;15683180;28;20045;-53
2023/06/03 17:47:37;;;;;;;0.43;0.25;;;;;;;19.55;26.68;101646.59;15677029;28;20080;-52
2023/06/03 17:55:11;;;;;;;1.35;0.65;;;;;;;19.35;26.72;101647.09;15665464;28;20041;-52
2023/06/03 18:02:44;;;;;;;1.40;0.25;;;;;;;19.09;27.83;101643.09;15684697;28;20075;-55
2023/06/03 18:10:18;;;;;;;0.40;0.32;;;;;;;18.96;28.21;101658.88;15691335;28;20049;-54
2023/06/03 18:17:51;;;;;;;0.38;0.35;;;;;;;18.55;27.86;101647.16;15689987;28;20044;-54
2023/06/03 18:25:25;;;;;;;0.43;0.10;;;;;;;18.71;27.58;101656.50;15695361;28;20536;-53
2023/06/03 18:32:58;;;;;;;0.52;0.30;;;;;;;18.70;27.62;101663.00;15687835;28;20060;-52
2023/06/03 18:40:33;;;;;;;1.08;0.47;;;;;;;18.33;28.15;101649.72;15690888;28;20403;-53
2023/06/03 18:48:05;;;;;;;0.38;0.22;;;;;;;18.62;29.40;101658.75;15684463;28;20132;-50
2023/06/03 18:55:40;;;;;;;0.85;0.30;;;;;;;18.41;28.56;101664.81;15685224;28;20075;-51
2023/06/03 19:03:13;;;;;;;0.20;0.10;;;;;;;18.32;29.33;101667.06;15680685;28;20069;-56
2023/06/03 19:10:48;;;;;;;0.80;0.40;;;;;;;17.91;30.55;101668.91;15687203;28;20040;-55
2023/06/03 19:18:21;;;;;;;0.20;0.20;;;;;;;17.71;29.98;101674.63;15688040;28;20137;-55
2023/06/03 19:25:56;;;;;;;0.43;0.43;;;;;;;17.94;30.50;101681.19;15692649;28;20048;-51
2023/06/03 19:33:28;;;;;;;0.38;0.20;;;;;;;18.06;31.77;101685.56;15675996;28;20593;-51
2023/06/03 19:41:02;;;;;;;0.60;0.30;;;;;;;17.92;32.03;101694.19;15687533;28;20048;-52
2023/06/03 19:48:36;;;;;;;0.93;0.60;;;;;;;17.45;32.51;101694.09;15663451;28;20049;-52
2023/06/03 19:56:11;;;;;;;4.97;1.27;;;;;;;17.36;33.14;101699.03;15681072;28;20071;-54
2023/06/03 20:03:44;;;;;;;0.60;0.30;;;;;;;16.96;34.45;101704.16;15676073;28;20049;-54
2023/06/03 20:11:18;;;;;;;3.67;0.63;;;;;;;16.70;34.65;101698.00;15677601;28;20037;-52
2023/06/03 20:18:51;;;;;;;0.68;0.65;;;;;;;16.43;35.63;101700.19;15686536;28;20041;-52
2023/06/03 20:26:26;;;;;;;0.50;0.30;;;;;;;16.22;36.02;101704.16;15682267;28;20037;-51
2023/06/03 20:34:00;;;;;;;0.73;0.63;;;;;;;16.17;35.96;101709.41;15684234;28;20144;-52
2023/06/03 20:41:34;;;;;;;5.80;1.98;;;;;;;16.00;36.01;101713.78;15678463;28;20053;-52
2023/06/03 20:49:07;;;;;;;5.68;1.60;;;;;;;15.92;36.25;101709.47;15679589;28;20045;-51
2023/06/03 20:56:41;;;;;;;2.93;1.50;;;;;;;15.72;36.42;101720.47;15677401;28;20052;-53
2023/06/03 21:04:13;;;;;;;1.80;1.50;;;;;;;14.86;36.74;101723.66;15673496;28;20433;-54
2023/06/03 21:11:47;;;;;;;2.17;1.00;;;;;;;15.09;36.38;101733.13;15674400;28;20067;-54
2023/06/03 21:19:20;;;;;;;1.42;0.68;;;;;;;15.29;37.51;101741.94;15688594;28;20041;-50
2023/06/03 21:26:54;;;;;;;0.80;0.40;;;;;;;15.17;37.11;101739.09;15681304;28;20631;-52
2023/06/03 21:34:27;;;;;;;0.77;0.60;;;;;;;15.24;37.70;101739.88;15696607;28;20052;-53
2023/06/03 21:42:04;;;;;;;6.85;1.08;;;;;;;14.98;37.62;101750.84;15688543;28;20041;-53
2023/06/03 21:49:40;;;;;;;0.77;0.32;;;;;;;14.87;38.19;101743.41;15691377;28;20091;-52
2023/06/03 21:57:14;;;;;;;2.40;1.30;;;;;;;14.73;38.15;101746.13;15685442;28;20049;-53
2023/06/03 22:04:50;;;;;;;1.75;1.20;;;;;;;14.52;38.31;101751.84;15687279;28;20087;-52
2023/06/03 22:12:24;;;;;;;0.80;0.47;;;;;;;14.56;39.17;101752.25;15683575;28;20502;-54
2023/06/03 22:19:56;;;;;;;2.75;0.40;;;;;;;14.30;39.39;101745.81;15697976;28;20049;-52
2023/06/03 22:27:30;;;;;;;0.52;0.52;;;;;;;14.08;39.79;101745.19;15671400;28;20052;-53
2023/06/03 22:35:03;;;;;;;1.83;1.27;;;;;;;14.00;40.92;101750.84;15692129;28;20075;-51
2023/06/03 22:42:38;;;;;;;1.67;0.98;;;;;;;13.83;40.65;101736.09;15685220;28;20048;-51
2023/06/03 22:50:11;;;;;;;1.05;0.50;;;;;;;13.68;40.65;101747.09;15686542;28;20036;-54
2023/06/03 22:57:45;;;;;;;1.60;0.70;;;;;;;13.43;41.90;101744.13;15695892;22;20202;-48
2023/06/03 23:05:19;;;;;;;5.43;1.02;;;;;;;13.27;42.35;101742.63;15677008;28;20523;-47
2023/06/03 23:12:55;;;;;;;0.50;0.38;;;;;;;13.02;42.81;101739.63;15678958;28;20068;-48
2023/06/03 23:20:29;;;;;;;2.85;1.60;;;;;;;12.84;44.13;101745.56;15685647;28;20049;-48
2023/06/03 23:28:03;;;;;;;2.00;1.08;;;;;;;12.56;45.10;101744.81;15684822;28;20136;-50
2023/06/03 23:35:36;;;;;;;0.73;0.43;;;;;;;12.36;45.71;101748.22;15686905;28;20040;-47
2023/06/03 23:43:10;;;;;;;0.53;0.30;;;;;;;12.23;46.96;101748.97;15681445;28;20128;-49
2023/06/03 23:50:43;;;;;;;0.63;0.47;;;;;;;12.05;46.82;101745.91;15684141;28;20319;-51
2023/06/03 23:58:17;;;;;;;0.77;0.50;;;;;;;11.97;45.19;101746.88;15679725;28;20053;-49
